Time;durP1;ratioP1;P1;durP2;ratioP2;P2;SDS_P1;SDS_P2;PMS_P1;PMS_P2;Temp;Humidity;BMP_temperature;BMP_pressure;BME280_temperature;BME280_humidity;BME280_pressure;Samples;Min_cycle;Max_cycle;Signal;HPM_P1;HPM_P2
2022/05/14 00:00:19;;;;;;;;;;;;;;;21.41;52.64;100969.53;4948155;29;19915;-86
2022/05/14 00:03:04;;;;;;;;;;;;;;;21.31;52.41;100965.50;4945101;29;19915;-87
2022/05/14 00:05:49;;;;;;;;;;;;;;;21.32;52.89;100972.66;4947576;29;19915;-86
2022/05/14 00:08:33;;;;;;;;;;;;;;;21.30;53.02;100969.44;4942935;29;19919;-87
2022/05/14 00:14:22;;;;;;;;;;;;;;;21.38;52.95;100947.38;4947898;29;19914;-86
2022/05/14 00:17:07;;;;;;;;;;;;;;;21.37;53.13;100954.09;4932753;29;19914;-86
2022/05/14 00:19:51;;;;;;;;;;;;;;;21.28;53.15;100966.25;4943083;29;19914;-87
2022/05/14 00:22:36;;;;;;;;;;;;;;;21.26;52.71;100956.78;4941902;29;19915;-86
2022/05/14 00:25:21;;;;;;;;;;;;;;;21.37;53.02;100956.88;4952571;29;19915;-88
2022/05/14 00:28:06;;;;;;;;;;;;;;;21.37;52.94;100963.19;4947366;29;19919;-87
2022/05/14 00:30:50;;;;;;;;;;;;;;;21.36;53.05;100953.31;4947772;29;19914;-87
2022/05/14 00:33:36;;;;;;;;;;;;;;;21.29;53.04;100958.75;4947758;29;19910;-87
2022/05/14 00:36:21;;;;;;;;;;;;;;;21.24;53.46;100959.91;4947283;29;19914;-87
2022/05/14 00:39:06;;;;;;;;;;;;;;;21.24;52.91;100954.38;4942161;29;19914;-87
2022/05/14 00:41:51;;;;;;;;;;;;;;;21.19;52.58;100954.72;4946612;29;20300;-87
2022/05/14 00:44:35;;;;;;;;;;;;;;;21.08;53.38;100955.78;4945349;29;19915;-87
2022/05/14 00:47:20;;;;;;;;;;;;;;;21.10;53.86;100948.69;4941642;29;19918;-86
2022/05/14 00:50:06;;;;;;;;;;;;;;;21.00;54.01;100935.56;4942230;29;19915;-87
2022/05/14 00:52:53;;;;;;;;;;;;;;;20.91;54.29;100940.59;4941475;29;19914;-87
2022/05/14 00:55:39;;;;;;;;;;;;;;;21.01;53.61;100937.16;4946526;29;19915;-87
2022/05/14 00:58:34;;;;;;;;;;;;;;;20.97;53.68;100943.81;4942348;29;19915;-87
2022/05/14 01:01:35;;;;;;;;;;;;;;;21.07;53.97;100951.44;4944815;29;19914;-86
2022/05/14 01:04:21;;;;;;;;;;;;;;;21.01;53.47;100945.44;4954410;28;19914;-86
2022/05/14 01:07:12;;;;;;;;;;;;;;;20.92;54.03;100940.22;4942844;28;20285;-87
2022/05/14 01:10:00;;;;;;;;;;;;;;;20.84;54.47;100935.78;4953911;28;19915;-86
2022/05/14 01:12:51;;;;;;;;;;;;;;;20.77;54.61;100937.69;4940629;29;19915;-86
2022/05/14 01:15:52;;;;;;;;;;;;;;;20.67;54.39;100930.84;4959890;28;19916;-86
2022/05/14 01:18:39;;;;;;;;;;;;;;;20.73;54.49;100926.59;4946300;29;20294;-86
2022/05/14 01:21:54;;;;;;;;;;;;;;;20.72;54.69;100927.78;4940305;29;19915;-88
2022/05/14 01:27:57;;;;;;;;;;;;;;;20.79;54.52;100922.31;4944697;29;19919;-87
2022/05/14 01:30:54;;;;;;;;;;;;;;;20.76;54.77;100931.38;4946376;29;19915;-87
2022/05/14 01:33:38;;;;;;;;;;;;;;;20.67;55.06;100930.84;4942173;29;19914;-87
2022/05/14 01:36:24;;;;;;;;;;;;;;;20.72;54.91;100929.75;4946586;29;19915;-87
2022/05/14 01:39:09;;;;;;;;;;;;;;;20.66;55.22;100931.25;4941872;29;19915;-88
2022/05/14 01:41:54;;;;;;;;;;;;;;;20.64;55.49;100928.06;4941363;29;19918;-88
2022/05/14 01:44:40;;;;;;;;;;;;;;;20.61;54.93;100931.59;4941059;29;19914;-87
2022/05/14 01:47:25;;;;;;;;;;;;;;;20.60;55.29;100941.06;4940939;29;19919;-87
2022/05/14 01:50:10;;;;;;;;;;;;;;;20.52;55.62;100939.38;4946413;29;19915;-88
2022/05/14 01:52:54;;;;;;;;;;;;;;;20.56;55.57;100941.00;4940085;29;19915;-87
2022/05/14 01:55:39;;;;;;;;;;;;;;;20.49;55.68;100947.25;4940851;29;19915;-87
2022/05/14 01:58:37;;;;;;;;;;;;;;;20.56;55.99;100951.28;4940737;29;19915;-87
2022/05/14 02:01:30;;;;;;;;;;;;;;;20.48;55.80;100944.84;4944621;29;20373;-88
2022/05/14 02:04:16;;;;;;;;;;;;;;;20.46;55.47;100939.72;4940983;29;19915;-88
2022/05/14 02:07:01;;;;;;;;;;;;;;;20.49;55.52;100941.72;4944549;29;19919;-87
2022/05/14 02:09:47;;;;;;;;;;;;;;;20.56;55.86;100941.00;4944379;29;19914;-87
2022/05/14 02:12:31;;;;;;;;;;;;;;;20.57;55.77;100937.06;4944239;29;19915;-88
2022/05/14 02:15:16;;;;;;;;;;;;;;;20.59;55.72;100939.44;4931106;29;20290;-88
2022/05/14 02:18:01;;;;;;;;;;;;;;;20.66;55.15;100942.31;4956860;28;19915;-87
2022/05/14 02:20:46;;;;;;;;;;;;;;;20.64;55.42;100939.13;4950013;29;19916;-87
2022/05/14 02:23:32;;;;;;;;;;;;;;;20.53;55.51;100941.75;4944855;29;19915;-87
2022/05/14 02:26:19;;;;;;;;;;;;;;;20.55;55.10;100939.41;4949842;29;19919;-86
2022/05/14 02:29:04;;;;;;;;;;;;;;;20.61;55.50;100942.66;4949106;29;19915;-86
2022/05/14 02:31:49;;;;;;;;;;;;;;;20.59;55.40;100940.25;4946903;29;19914;-87
2022/05/14 02:34:34;;;;;;;;;;;;;;;20.60;54.85;100936.31;4944249;29;19915;-86
2022/05/14 02:37:20;;;;;;;;;;;;;;;20.54;55.11;100932.28;4943787;29;19914;-86
2022/05/14 02:40:05;;;;;;;;;;;;;;;20.45;55.58;100932.59;4929979;29;20375;-87
2022/05/14 02:42:50;;;;;;;;;;;;;;;20.42;56.39;100938.84;4929587;29;19915;-86
2022/05/14 02:45:34;;;;;;;;;;;;;;;20.40;56.25;100941.22;4962458;28;19914;-87
2022/05/14 02:48:20;;;;;;;;;;;;;;;20.47;55.80;100944.06;4949941;29;19918;-87
2022/05/14 02:51:05;;;;;;;;;;;;;;;20.34;56.37;100930.88;4948504;29;19914;-83
2022/05/14 02:53:50;;;;;;;;;;;;;;;20.32;56.36;100931.25;4958147;23;19923;-81
2022/05/14 02:56:34;;;;;;;;;;;;;;;20.40;56.59;100941.22;4943023;28;20381;-82
2022/05/14 02:59:19;;;;;;;;;;;;;;;20.49;56.47;100940.91;4943230;28;20382;-82
2022/05/14 03:02:04;;;;;;;;;;;;;;;20.70;56.01;100937.59;4934819;29;19915;-82
2022/05/14 03:04:48;;;;;;;;;;;;;;;20.94;55.18;100945.38;4924454;29;19915;-81
2022/05/14 03:07:34;;;;;;;;;;;;;;;21.08;54.90;100948.25;4924153;29;19919;-81
2022/05/14 03:10:18;;;;;;;;;;;;;;;21.20;54.59;100959.09;4923247;29;19919;-82
2022/05/14 03:13:03;;;;;;;;;;;;;;;21.24;53.65;100954.38;4918942;29;19915;-82
2022/05/14 03:15:48;;;;;;;;;;;;;;;21.30;53.96;100947.31;4926337;29;20398;-83
2022/05/14 03:18:33;;;;;;;;;;;;;;;21.22;53.29;100950.41;4920721;29;19915;-79
2022/05/14 03:21:17;;;;;;;;;;;;;;;21.12;53.71;100951.88;4928656;29;19915;-80
2022/05/14 03:24:02;;;;;;;;;;;;;;;20.99;52.89;100945.00;4916998;29;20489;-80
2022/05/14 03:26:48;;;;;;;;;;;;;;;20.94;54.39;100945.38;4922433;29;20398;-78
2022/05/14 03:29:33;;;;;;;;;;;;;;;20.78;54.39;100953.09;4920783;29;19918;-81
2022/05/14 03:32:18;;;;;;;;;;;;;;;20.88;54.88;100947.66;4922812;29;20473;-82
2022/05/14 03:35:08;;;;;;;;;;;;;;;21.06;54.50;100944.31;4919934;29;19915;-81
2022/05/14 03:37:53;;;;;;;;;;;;;;;21.20;53.91;100950.78;4931159;29;19922;-82
2022/05/14 03:40:37;;;;;;;;;;;;;;;21.31;53.91;100954.44;4920963;29;20378;-82
2022/05/14 03:43:22;;;;;;;;;;;;;;;21.42;53.60;100957.31;4923855;29;20587;-80
2022/05/14 03:46:07;;;;;;;;;;;;;;;21.50;53.22;100953.41;4925541;29;19985;-81
2022/05/14 03:48:52;;;;;;;;;;;;;;;21.50;52.87;100967.25;4944018;28;19922;-81
2022/05/14 03:51:36;;;;;;;;;;;;;;;21.45;53.13;100956.53;4935409;29;20382;-80
2022/05/14 03:54:21;;;;;;;;;;;;;;;21.48;53.27;100968.81;4932265;29;19914;-82
2022/05/14 03:57:09;;;;;;;;;;;;;;;21.50;53.13;100975.53;4921223;29;19915;-81
2022/05/14 03:59:53;;;;;;;;;;;;;;;21.52;52.77;100981.50;4925402;29;19923;-81
2022/05/14 04:02:38;;;;;;;;;;;;;;;21.52;52.64;100977.94;4929641;29;19915;-79
2022/05/14 04:05:23;;;;;;;;;;;;;;;21.51;52.85;100990.97;4930284;29;20294;-80
2022/05/14 04:08:07;;;;;;;;;;;;;;;21.49;52.97;100982.25;4924701;29;20306;-80
2022/05/14 04:10:52;;;;;;;;;;;;;;;21.50;53.02;100988.59;4922008;29;20302;-80
2022/05/14 04:13:37;;;;;;;;;;;;;;;21.42;52.60;100989.72;4917963;29;20009;-83
2022/05/14 04:16:23;;;;;;;;;;;;;;;21.43;52.96;100988.53;4899162;29;19915;-80
2022/05/14 04:19:08;;;;;;;;;;;;;;;21.49;52.87;100989.75;4922259;29;20298;-80
2022/05/14 04:21:52;;;;;;;;;;;;;;;21.53;52.62;100988.63;4925691;29;19919;-80
2022/05/14 04:24:37;;;;;;;;;;;;;;;21.56;52.52;100996.16;4920142;29;19915;-79
2022/05/14 04:27:22;;;;;;;;;;;;;;;21.53;52.76;100993.38;4929398;29;19919;-80
2022/05/14 04:30:08;;;;;;;;;;;;;;;21.26;53.02;100992.72;4919217;29;20302;-80
2022/05/14 04:32:53;;;;;;;;;;;;;;;21.10;53.73;100992.13;4920774;29;19922;-80
2022/05/14 04:35:38;;;;;;;;;;;;;;;21.19;53.95;100996.22;4932604;29;19914;-81
2022/05/14 04:38:23;;;;;;;;;;;;;;;21.29;53.63;101006.59;4932307;29;19915;-80
2022/05/14 04:41:08;;;;;;;;;;;;;;;21.39;53.17;101004.28;4923475;29;19915;-80
2022/05/14 04:43:52;;;;;;;;;;;;;;;21.47;53.13;101003.19;4924478;29;19919;-79
2022/05/14 04:46:37;;;;;;;;;;;;;;;21.50;53.03;101010.72;4925201;29;19915;-82
2022/05/14 04:49:22;;;;;;;;;;;;;;;21.46;53.18;101001.59;4921109;29;19927;-79
2022/05/14 04:52:07;;;;;;;;;;;;;;;21.34;53.91;101006.25;4915954;29;19915;-80
2022/05/14 04:54:52;;;;;;;;;;;;;;;21.31;53.68;101014.50;4927163;29;19915;-80
2022/05/14 04:57:38;;;;;;;;;;;;;;;21.43;53.50;101017.00;4935939;29;19915;-79
2022/05/14 05:00:23;;;;;;;;;;;;;;;21.43;53.83;101022.53;4931133;29;19919;-78
2022/05/14 05:03:16;;;;;;;;;;;;;;;21.27;55.06;101017.25;4922382;29;20298;-80
2022/05/14 05:06:02;;;;;;;;;;;;;;;21.21;55.78;101020.72;4932534;29;19915;-79
2022/05/14 05:08:49;;;;;;;;;;;;;;;21.11;55.96;101011.13;4928699;29;19919;-80
2022/05/14 05:11:34;;;;;;;;;;;;;;;21.17;56.03;101012.41;4907269;29;19915;-80
2022/05/14 05:14:19;;;;;;;;;;;;;;;21.32;55.03;101010.56;4921112;29;19915;-80
2022/05/14 05:17:04;;;;;;;;;;;;;;;21.37;55.50;101014.97;4920769;29;19918;-78
2022/05/14 05:19:49;;;;;;;;;;;;;;;21.29;55.62;101016.84;4924947;29;19915;-79
2022/05/14 05:22:33;;;;;;;;;;;;;;;21.36;56.60;101021.66;4931549;29;19923;-79
2022/05/14 05:25:18;;;;;;;;;;;;;;;21.33;56.99;101018.47;4923677;29;19972;-80
2022/05/14 05:28:03;;;;;;;;;;;;;;;21.42;56.07;101017.38;4930036;29;19923;-79
2022/05/14 05:30:48;;;;;;;;;;;;;;;21.52;54.82;101020.25;4928751;29;20309;-81
2022/05/14 05:33:33;;;;;;;;;;;;;;;21.54;55.92;101019.84;4923960;29;20568;-81
2022/05/14 05:36:17;;;;;;;;;;;;;;;21.60;55.36;101032.97;4926291;29;19915;-79
2022/05/14 05:39:02;;;;;;;;;;;;;;;21.70;55.03;101034.22;4926305;29;19915;-79
2022/05/14 05:41:46;;;;;;;;;;;;;;;21.81;54.24;101037.88;4924660;29;20105;-79
2022/05/14 05:44:31;;;;;;;;;;;;;;;21.91;53.83;101039.94;4925571;29;19915;-78
2022/05/14 05:47:16;;;;;;;;;;;;;;;21.96;53.95;101042.38;4931870;29;19919;-78
2022/05/14 05:50:00;;;;;;;;;;;;;;;22.11;55.02;101055.16;4926816;29;19915;-78
2022/05/14 05:52:45;;;;;;;;;;;;;;;22.14;54.79;101054.41;4916990;29;19916;-80
2022/05/14 05:58:33;;;;;;;;;;;;;;;22.31;54.20;101054.88;4930920;29;19926;-79
2022/05/14 06:01:18;;;;;;;;;;;;;;;22.26;53.85;101056.03;4912716;29;19915;-79
2022/05/14 06:04:02;;;;;;;;;;;;;;;22.32;53.72;101062.03;4928175;29;19977;-78
2022/05/14 06:06:47;;;;;;;;;;;;;;;22.34;53.96;101056.91;4931916;29;19915;-79
2022/05/14 06:09:32;;;;;;;;;;;;;;;22.33;54.12;101058.06;4935708;29;19918;-79
2022/05/14 06:12:17;;;;;;;;;;;;;;;22.35;54.52;101066.81;4921826;29;19915;-79
2022/05/14 06:15:01;;;;;;;;;;;;;;;22.39;54.50;101054.56;4922480;29;19915;-81
2022/05/14 06:17:47;;;;;;;;;;;;;;;22.38;54.90;101060.47;4921933;29;20371;-81
2022/05/14 06:20:32;;;;;;;;;;;;;;;22.38;55.00;101052.16;4924277;29;19915;-81
2022/05/14 06:23:16;;;;;;;;;;;;;;;22.44;54.88;101056.97;4922245;29;19915;-80
2022/05/14 06:26:01;;;;;;;;;;;;;;;22.51;54.91;101059.75;4928735;29;20305;-81
2022/05/14 06:28:46;;;;;;;;;;;;;;;22.55;54.89;101065.34;4931839;29;20336;-81
2022/05/14 06:31:30;;;;;;;;;;;;;;;22.55;55.00;101063.34;4914777;29;19915;-81
2022/05/14 06:34:15;;;;;;;;;;;;;;;22.58;55.07;101070.09;4910062;29;19923;-80
2022/05/14 06:37:00;;;;;;;;;;;;;;;22.60;55.03;101073.28;4912458;29;19915;-82
2022/05/14 06:39:45;;;;;;;;;;;;;;;22.61;55.09;101072.88;4934586;29;19926;-81
2022/05/14 06:42:29;;;;;;;;;;;;;;;22.66;55.19;101076.47;4927112;29;19915;-81
2022/05/14 06:45:13;;;;;;;;;;;;;;;22.74;55.00;101073.38;4933935;29;19918;-81
2022/05/14 06:47:58;;;;;;;;;;;;;;;22.80;55.03;101071.03;4916645;29;19919;-81
2022/05/14 06:50:44;;;;;;;;;;;;;;;22.72;55.39;101061.88;4923475;29;19919;-81
2022/05/14 06:53:29;;;;;;;;;;;;;;;22.76;55.42;101068.22;4917731;29;20306;-81
2022/05/14 06:56:14;;;;;;;;;;;;;;;22.84;54.65;101061.53;4923797;29;19919;-80
2022/05/14 06:59:00;;;;;;;;;;;;;;;22.81;54.56;101067.84;4918502;29;19914;-82
2022/05/14 07:01:46;;;;;;;;;;;;;;;22.81;54.42;101064.28;4934260;29;19923;-80
2022/05/14 07:07:35;;;;;;;;;;;;;;;22.83;54.58;101065.50;4927334;29;19919;-81
2022/05/14 07:10:21;;;;;;;;;;;;;;;22.87;54.07;101066.28;4925490;29;19915;-82
2022/05/14 07:13:05;;;;;;;;;;;;;;;22.92;54.00;101071.47;4913601;29;19915;-80
2022/05/14 07:15:49;;;;;;;;;;;;;;;22.91;54.42;101072.66;4918791;29;20290;-79
2022/05/14 07:18:34;;;;;;;;;;;;;;;22.91;53.98;101071.84;4919369;29;19915;-81
2022/05/14 07:21:18;;;;;;;;;;;;;;;22.83;54.55;101068.28;4920582;29;19919;-82
2022/05/14 07:24:05;;;;;;;;;;;;;;;22.91;53.48;101067.09;4919003;29;19918;-82
2022/05/14 07:26:51;;;;;;;;;;;;;;;22.97;53.45;101076.63;4915945;29;19915;-79
2022/05/14 07:29:36;;;;;;;;;;;;;;;22.95;53.91;101067.13;4931952;28;19920;-81
2022/05/14 07:32:20;;;;;;;;;;;;;;;23.02;53.51;101073.47;4922589;29;19914;-80
2022/05/14 07:35:05;;;;;;;;;;;;;;;23.11;53.70;101075.13;4925791;29;19915;-80
2022/05/14 07:37:53;;;;;;;;;;;;;;;23.19;54.24;101077.50;4926406;29;19914;-81
2022/05/14 07:40:38;;;;;;;;;;;;;;;23.23;53.55;101075.53;4934611;29;19915;-82
2022/05/14 07:43:24;;;;;;;;;;;;;;;23.27;53.50;101076.34;4939015;29;19915;-82
2022/05/14 07:46:15;;;;;;;;;;;;;;;23.37;54.25;101074.75;4936799;29;19914;-79
2022/05/14 07:49:00;;;;;;;;;;;;;;;23.43;52.93;101073.19;4934997;29;19919;-81
2022/05/14 07:51:45;;;;;;;;;;;;;;;23.48;52.68;101072.84;4932197;29;19915;-80
2022/05/14 07:54:30;;;;;;;;;;;;;;;23.48;53.26;101070.06;4938736;29;19915;-79
2022/05/14 07:57:16;;;;;;;;;;;;;;;23.53;52.65;101069.69;4936880;29;19914;-81
2022/05/14 08:00:00;;;;;;;;;;;;;;;23.45;51.99;101056.97;4912021;29;19914;-79
2022/05/14 08:02:45;;;;;;;;;;;;;;;23.52;52.63;101061.75;4920239;29;20298;-80
2022/05/14 08:05:30;;;;;;;;;;;;;;;23.54;52.26;101068.50;4920774;29;19915;-79
2022/05/14 08:08:15;;;;;;;;;;;;;;;23.50;52.83;101067.69;4927298;29;20301;-82
2022/05/14 08:10:59;;;;;;;;;;;;;;;23.55;54.36;101061.75;4931579;29;19914;-80
2022/05/14 08:13:45;;;;;;;;;;;;;;;23.64;52.97;101069.69;4935924;29;19918;-79
2022/05/14 08:16:29;;;;;;;;;;;;;;;23.64;52.59;101067.72;4917594;29;20201;-80
2022/05/14 08:19:13;;;;;;;;;;;;;;;23.72;52.45;101066.50;4909526;29;20398;-81
2022/05/14 08:25:01;;;;;;;;;;;;;;;23.88;51.93;101061.38;4927892;29;19914;-83
2022/05/14 08:27:46;;;;;;;;;;;;;;;23.91;51.90;101064.53;4924249;29;19919;-80
2022/05/14 08:30:32;;;;;;;;;;;;;;;23.93;52.23;101057.38;4933425;29;19915;-84
2022/05/14 08:33:17;;;;;;;;;;;;;;;23.87;52.31;101059.78;4920426;29;19915;-83
2022/05/14 08:36:02;;;;;;;;;;;;;;;23.95;52.12;101057.00;4924945;29;20325;-84
2022/05/14 08:38:47;;;;;;;;;;;;;;;23.98;51.43;101054.22;4922080;29;20386;-85
2022/05/14 08:41:34;;;;;;;;;;;;;;;24.01;52.08;101056.22;4922095;29;19919;-82
2022/05/14 08:44:21;;;;;;;;;;;;;;;24.13;52.12;101060.53;4937270;29;19918;-81
2022/05/14 08:47:07;;;;;;;;;;;;;;;24.19;51.11;101064.53;4897670;29;20382;-83
2022/05/14 08:49:53;;;;;;;;;;;;;;;24.23;50.81;101062.53;4902405;29;19923;-82
2022/05/14 08:52:38;;;;;;;;;;;;;;;24.02;51.38;101060.59;4948940;23;20335;-84
2022/05/14 08:55:23;;;;;;;;;;;;;;;24.06;51.67;101061.38;4948663;29;19923;-84
2022/05/14 08:58:27;;;;;;;;;;;;;;;24.22;52.19;101060.97;4946396;29;19918;-84
2022/05/14 09:01:14;;;;;;;;;;;;;;;24.34;52.26;101066.09;4951507;29;19914;-84
2022/05/14 09:03:59;;;;;;;;;;;;;;;24.42;50.79;101062.13;4938402;28;20389;-83
2022/05/14 09:06:44;;;;;;;;;;;;;;;24.36;50.87;101063.72;4949696;28;19914;-83
2022/05/14 09:09:28;;;;;;;;;;;;;;;24.34;51.08;101060.53;4938057;29;19919;-84
2022/05/14 09:12:15;;;;;;;;;;;;;;;24.33;50.85;101058.94;4953057;28;19915;-84
2022/05/14 09:15:12;;;;;;;;;;;;;;;24.29;50.66;101066.50;4934833;29;19915;-84
2022/05/14 09:18:08;;;;;;;;;;;;;;;24.25;51.31;101065.72;4938820;29;19944;-84
2022/05/14 09:21:04;;;;;;;;;;;;;;;24.24;51.18;101066.91;4964662;28;19922;-82
2022/05/14 09:23:54;;;;;;;;;;;;;;;24.31;50.81;101066.13;4956065;28;19914;-82
2022/05/14 09:26:40;;;;;;;;;;;;;;;24.34;50.45;101056.97;4965083;28;19914;-82
2022/05/14 09:29:27;;;;;;;;;;;;;;;24.28;50.98;101064.91;4941195;29;19919;-83
2022/05/14 09:32:14;;;;;;;;;;;;;;;24.37;50.95;101067.31;4944776;29;19915;-82
2022/05/14 09:35:04;;;;;;;;;;;;;;;24.34;50.53;101068.09;4959731;28;19915;-83
2022/05/14 09:37:50;;;;;;;;;;;;;;;24.37;50.50;101067.31;4942693;29;19919;-83
2022/05/14 09:40:35;;;;;;;;;;;;;;;24.36;50.35;101066.50;4934625;29;19915;-83
2022/05/14 09:43:20;;;;;;;;;;;;;;;24.27;50.57;101058.59;4950634;29;19914;-83
2022/05/14 09:46:12;;;;;;;;;;;;;;;24.35;50.65;101053.00;4948626;29;20306;-83
2022/05/14 09:49:05;;;;;;;;;;;;;;;24.45;50.59;101058.53;4944376;29;19919;-84
2022/05/14 09:51:54;;;;;;;;;;;;;;;24.65;50.33;101061.66;4943962;29;19918;-84
2022/05/14 09:54:46;;;;;;;;;;;;;;;24.70;49.52;101053.69;4946281;29;19915;-84
2022/05/14 09:57:31;;;;;;;;;;;;;;;24.75;49.34;101057.25;4944400;28;19915;-82
2022/05/14 10:00:39;;;;;;;;;;;;;;;24.82;49.12;101060.00;4952509;29;19914;-84
2022/05/14 10:03:32;;;;;;;;;;;;;;;24.80;49.08;101060.41;4943274;29;19915;-84
2022/05/14 10:06:27;;;;;;;;;;;;;;;24.79;48.76;101055.25;4956342;28;19914;-84
2022/05/14 10:09:11;;;;;;;;;;;;;;;24.75;49.31;101052.47;4951440;28;19918;-83
2022/05/14 10:12:15;;;;;;;;;;;;;;;24.90;48.47;101045.69;4962336;29;19915;-83
2022/05/14 10:14:59;;;;;;;;;;;;;;;24.90;48.31;101044.88;4942701;29;19915;-84
2022/05/14 10:18:00;;;;;;;;;;;;;;;24.95;48.11;101039.69;4933303;28;19915;-84
2022/05/14 10:20:51;;;;;;;;;;;;;;;24.96;48.16;101038.50;4961809;28;20865;-83
2022/05/14 10:27:20;;;;;;;;;;;;;;;24.89;47.62;101044.09;4957832;28;20408;-84
2022/05/14 10:30:21;;;;;;;;;;;;;;;24.90;47.54;101047.66;4967101;28;19918;-84
2022/05/14 10:33:07;;;;;;;;;;;;;;;24.94;47.23;101045.69;4939862;29;19918;-83
2022/05/14 10:35:52;;;;;;;;;;;;;;;24.89;46.67;101037.75;4963211;28;19915;-84
2022/05/14 10:38:51;;;;;;;;;;;;;;;24.83;47.14;101040.13;4949278;29;19914;-84
2022/05/14 10:41:47;;;;;;;;;;;;;;;25.06;45.67;101048.00;4977328;28;19914;-82
2022/05/14 10:44:38;;;;;;;;;;;;;;;25.02;46.47;101042.44;4946821;29;19915;-84
2022/05/14 10:47:23;;;;;;;;;;;;;;;25.04;46.47;101044.84;4959253;28;19919;-83
2022/05/14 10:50:11;;;;;;;;;;;;;;;25.17;45.51;101043.16;4941500;29;19919;-83
2022/05/14 10:53:04;;;;;;;;;;;;;;;25.24;43.40;101039.56;4941393;29;19919;-84
2022/05/14 10:55:56;;;;;;;;;;;;;;;25.26;45.20;101035.16;4951517;28;19931;-82
2022/05/14 10:58:59;;;;;;;;;;;;;;;25.37;44.31;101026.72;4940913;29;19919;-83
2022/05/14 11:01:53;;;;;;;;;;;;;;;25.63;43.05;101026.16;4955141;28;20381;-83
2022/05/14 11:04:42;;;;;;;;;;;;;;;25.55;43.69;101017.06;4947525;28;19914;-83
2022/05/14 11:07:30;;;;;;;;;;;;;;;25.49;44.52;101013.13;4961335;28;19914;-84
2022/05/14 11:10:14;;;;;;;;;;;;;;;25.36;45.02;101016.78;4951598;29;19918;-84
2022/05/14 11:13:20;;;;;;;;;;;;;;;25.57;45.01;101016.66;4950129;29;19914;-84
2022/05/14 11:16:10;;;;;;;;;;;;;;;25.64;45.05;101021.38;4949123;29;19915;-83
2022/05/14 11:18:55;;;;;;;;;;;;;;;25.51;45.29;101010.69;4951431;29;19919;-84
2022/05/14 11:21:41;;;;;;;;;;;;;;;25.63;45.16;101014.22;4960039;28;20393;-84
2022/05/14 11:24:38;;;;;;;;;;;;;;;25.87;44.65;101016.78;4957415;29;19929;-84
2022/05/14 11:27:31;;;;;;;;;;;;;;;25.94;44.56;101013.94;4966040;28;19914;-82
2022/05/14 11:30:15;;;;;;;;;;;;;;;26.15;43.60;101018.53;4965264;28;20370;-84
2022/05/14 11:33:01;;;;;;;;;;;;;;;26.17;43.62;101009.72;4954729;28;19922;-84
2022/05/14 11:35:47;;;;;;;;;;;;;;;25.72;44.67;101015.34;4980498;28;19915;-82
2022/05/14 11:38:34;;;;;;;;;;;;;;;25.74;44.27;101012.94;4959494;28;19915;-83
2022/05/14 11:41:31;;;;;;;;;;;;;;;25.81;44.37;101012.06;4957829;28;19918;-83
2022/05/14 11:44:35;;;;;;;;;;;;;;;25.79;44.28;101008.91;4963065;29;19914;-83
2022/05/14 11:47:29;;;;;;;;;;;;;;;25.78;44.66;101010.13;4977840;28;19914;-83
2022/05/14 11:50:16;;;;;;;;;;;;;;;25.74;44.81;101014.94;4963159;28;19922;-84
2022/05/14 11:53:05;;;;;;;;;;;;;;;25.53;45.18;101013.09;4965199;28;19929;-82
2022/05/14 11:55:55;;;;;;;;;;;;;;;25.59;44.25;100997.56;4963721;28;19914;-83
2022/05/14 11:58:40;;;;;;;;;;;;;;;25.67;44.77;101003.84;4942892;29;19915;-83
2022/05/14 12:01:28;;;;;;;;;;;;;;;25.79;44.62;101003.34;4958701;28;19915;-84
2022/05/14 12:04:17;;;;;;;;;;;;;;;26.03;43.57;101005.09;4948702;28;19919;-84
2022/05/14 12:07:19;;;;;;;;;;;;;;;26.01;43.53;100998.38;4957135;28;19914;-83
2022/05/14 12:10:09;;;;;;;;;;;;;;;25.98;43.89;100997.19;4954520;28;19922;-83
2022/05/14 12:13:00;;;;;;;;;;;;;;;26.08;42.94;100985.13;4946775;28;19914;-83
2022/05/14 12:15:47;;;;;;;;;;;;;;;26.26;42.66;100990.56;4952385;28;19930;-83
2022/05/14 12:18:32;;;;;;;;;;;;;;;26.42;42.39;100990.75;4948382;28;20383;-83
2022/05/14 12:21:17;;;;;;;;;;;;;;;26.19;42.78;100985.00;4947534;28;19914;-83
2022/05/14 12:24:02;;;;;;;;;;;;;;;26.53;40.86;100977.47;4958280;28;19915;-83
2022/05/14 12:26:47;;;;;;;;;;;;;;;26.76;40.08;100979.56;4967967;28;19914;-83
2022/05/14 12:29:33;;;;;;;;;;;;;;;26.85;40.31;100979.03;4957289;28;20322;-82
2022/05/14 12:35:25;;;;;;;;;;;;;;;26.80;40.55;100969.13;4939470;29;19915;-84
2022/05/14 12:38:11;;;;;;;;;;;;;;;26.60;41.01;100971.81;4938751;29;19914;-84
2022/05/14 12:40:56;;;;;;;;;;;;;;;26.53;41.55;100968.28;4949040;28;19915;-84
2022/05/14 12:43:43;;;;;;;;;;;;;;;26.46;42.02;100960.03;4941148;29;19915;-82
2022/05/14 12:46:27;;;;;;;;;;;;;;;26.45;41.58;100964.03;4935120;29;20313;-84
2022/05/14 12:49:24;;;;;;;;;;;;;;;26.65;41.33;100965.75;4940263;28;19918;-83
2022/05/14 12:52:11;;;;;;;;;;;;;;;26.77;41.21;100962.38;4954437;28;19915;-82
2022/05/14 12:55:01;;;;;;;;;;;;;;;27.22;40.22;100956.59;4943916;28;19915;-85
2022/05/14 12:57:47;;;;;;;;;;;;;;;27.06;40.16;100954.44;4940303;29;19914;-84
2022/05/14 13:00:34;;;;;;;;;;;;;;;27.31;39.96;100951.25;4945025;29;19915;-83
2022/05/14 13:03:25;;;;;;;;;;;;;;;27.41;39.81;100955.88;4938944;29;19918;-84
2022/05/14 13:06:16;;;;;;;;;;;;;;;27.32;40.39;100955.63;4934538;29;19922;-84
2022/05/14 13:09:05;;;;;;;;;;;;;;;27.20;40.28;100954.22;4937801;29;19919;-83
2022/05/14 13:11:51;;;;;;;;;;;;;;;27.13;40.44;100947.94;4940954;28;19915;-84
2022/05/14 13:14:37;;;;;;;;;;;;;;;27.09;40.44;100942.41;4956353;28;19915;-84
2022/05/14 13:17:29;;;;;;;;;;;;;;;27.35;39.90;100948.38;4936990;29;19934;-84
2022/05/14 13:20:19;;;;;;;;;;;;;;;27.61;38.39;100947.56;4937422;29;19915;-83
2022/05/14 13:23:09;;;;;;;;;;;;;;;27.33;39.79;100945.25;4950381;29;19918;-84
2022/05/14 13:25:59;;;;;;;;;;;;;;;27.70;38.29;100945.00;4944853;29;19923;-84
2022/05/14 13:28:44;;;;;;;;;;;;;;;27.80;37.53;100941.22;4946887;28;20383;-84
2022/05/14 13:31:29;;;;;;;;;;;;;;;27.31;39.83;100933.69;4960439;28;19914;-83
2022/05/14 13:37:44;;;;;;;;;;;;;;;26.57;41.45;100916.03;4947070;29;19915;-85
2022/05/14 13:40:43;;;;;;;;;;;;;;;26.33;42.71;100915.94;4946809;29;19922;-84
2022/05/14 13:43:36;;;;;;;;;;;;;;;26.37;42.44;100919.47;4943777;29;19915;-84
2022/05/14 13:46:26;;;;;;;;;;;;;;;26.35;42.35;100916.34;4944996;29;19915;-85
2022/05/14 13:49:21;;;;;;;;;;;;;;;26.25;42.73;100911.69;4962459;28;20366;-85
2022/05/14 13:52:06;;;;;;;;;;;;;;;26.21;42.64;100905.31;4946806;28;20305;-84
2022/05/14 13:54:59;;;;;;;;;;;;;;;26.23;42.52;100897.34;4945651;29;20302;-84
2022/05/14 13:57:58;;;;;;;;;;;;;;;26.31;41.75;100895.28;4961182;28;20377;-84
2022/05/14 14:00:51;;;;;;;;;;;;;;;26.30;41.81;100885.34;4964003;28;19918;-84
2022/05/14 14:03:42;;;;;;;;;;;;;;;26.22;42.04;100884.63;4944733;28;19914;-83
2022/05/14 14:06:32;;;;;;;;;;;;;;;26.11;42.48;100883.94;4954787;28;19915;-83
2022/05/14 14:09:17;;;;;;;;;;;;;;;26.03;42.65;100874.09;4941389;29;20842;-83
2022/05/14 14:12:02;;;;;;;;;;;;;;;25.90;42.90;100867.47;4949867;28;19915;-83
2022/05/14 14:14:46;;;;;;;;;;;;;;;26.27;41.80;100859.06;4954409;28;19914;-82
2022/05/14 14:17:31;;;;;;;;;;;;;;;26.32;41.67;100858.59;4950119;28;19914;-84
2022/05/14 14:20:15;;;;;;;;;;;;;;;26.32;42.10;100857.81;4945961;29;19914;-83
2022/05/14 14:23:03;;;;;;;;;;;;;;;26.28;41.56;100846.72;4948287;29;19915;-84
2022/05/14 14:25:48;;;;;;;;;;;;;;;26.37;40.78;100844.19;4963938;28;19915;-84
2022/05/14 14:28:34;;;;;;;;;;;;;;;26.44;41.53;100842.50;4974950;28;19914;-85
2022/05/14 14:31:20;;;;;;;;;;;;;;;26.34;41.56;100842.25;4962746;28;19914;-85
2022/05/14 14:34:05;;;;;;;;;;;;;;;26.23;41.94;100836.03;4946588;29;19915;-84
2022/05/14 14:36:50;;;;;;;;;;;;;;;26.27;42.45;100833.97;4964565;28;19918;-85
2022/05/14 14:39:34;;;;;;;;;;;;;;;26.17;42.56;100834.06;4968437;28;20131;-87
2022/05/14 14:42:19;;;;;;;;;;;;;;;26.23;41.98;100840.81;4944796;28;19915;-84